sensor_id;sensor_type;location;lat;lon;timestamp;P1;durP1;ratioP1;P2;durP2;ratioP2
41799;SDS011;27468;47.460;19.034;2023-04-28T00:00:08;4.85;;;2.22;;
41799;SDS011;27468;47.460;19.034;2023-04-28T00:02:34;3.35;;;2.00;;
41799;SDS011;27468;47.460;19.034;2023-04-28T00:04:59;3.55;;;2.00;;
41799;SDS011;27468;47.460;19.034;2023-04-28T00:07:24;3.47;;;2.40;;
41799;SDS011;27468;47.460;19.034;2023-04-28T00:09:50;2.17;;;1.90;;
41799;SDS011;27468;47.460;19.034;2023-04-28T00:12:16;3.03;;;2.00;;
41799;SDS011;27468;47.460;19.034;2023-04-28T00:14:41;5.80;;;2.40;;
41799;SDS011;27468;47.460;19.034;2023-04-28T00:17:06;4.00;;;2.03;;
41799;SDS011;27468;47.460;19.034;2023-04-28T00:19:34;3.15;;;1.88;;
41799;SDS011;27468;47.460;19.034;2023-04-28T00:21:59;2.45;;;2.15;;
41799;SDS011;27468;47.460;19.034;2023-04-28T00:24:24;3.50;;;1.98;;
41799;SDS011;27468;47.460;19.034;2023-04-28T00:26:50;3.72;;;2.15;;
41799;SDS011;27468;47.460;19.034;2023-04-28T00:29:16;4.68;;;1.98;;
41799;SDS011;27468;47.460;19.034;2023-04-28T00:31:42;4.95;;;2.28;;
41799;SDS011;27468;47.460;19.034;2023-04-28T00:34:08;5.80;;;2.50;;
41799;SDS011;27468;47.460;19.034;2023-04-28T00:36:38;4.72;;;2.25;;
41799;SDS011;27468;47.460;19.034;2023-04-28T00:39:03;5.25;;;2.60;;
41799;SDS011;27468;47.460;19.034;2023-04-28T00:41:28;4.07;;;2.20;;
41799;SDS011;27468;47.460;19.034;2023-04-28T00:43:54;4.38;;;2.50;;
41799;SDS011;27468;47.460;19.034;2023-04-28T00:46:21;3.40;;;2.40;;
41799;SDS011;27468;47.460;19.034;2023-04-28T00:48:48;5.47;;;2.88;;
41799;SDS011;27468;47.460;19.034;2023-04-28T00:51:14;4.55;;;1.98;;
41799;SDS011;27468;47.460;19.034;2023-04-28T00:53:41;5.43;;;2.45;;
41799;SDS011;27468;47.460;19.034;2023-04-28T00:56:07;3.22;;;2.08;;
41799;SDS011;27468;47.460;19.034;2023-04-28T00:58:33;5.57;;;2.22;;
41799;SDS011;27468;47.460;19.034;2023-04-28T01:01:00;4.07;;;2.25;;
41799;SDS011;27468;47.460;19.034;2023-04-28T01:03:27;3.97;;;2.10;;
41799;SDS011;27468;47.460;19.034;2023-04-28T01:05:53;5.25;;;2.45;;
41799;SDS011;27468;47.460;19.034;2023-04-28T01:08:37;3.35;;;2.40;;
41799;SDS011;27468;47.460;19.034;2023-04-28T01:11:03;5.10;;;2.70;;
41799;SDS011;27468;47.460;19.034;2023-04-28T01:13:29;5.97;;;3.20;;
41799;SDS011;27468;47.460;19.034;2023-04-28T01:15:54;7.88;;;2.70;;
41799;SDS011;27468;47.460;19.034;2023-04-28T01:18:20;7.93;;;3.13;;
41799;SDS011;27468;47.460;19.034;2023-04-28T01:20:46;5.25;;;2.40;;
41799;SDS011;27468;47.460;19.034;2023-04-28T01:23:12;3.75;;;2.38;;
41799;SDS011;27468;47.460;19.034;2023-04-28T01:25:39;4.57;;;2.47;;
41799;SDS011;27468;47.460;19.034;2023-04-28T01:28:05;5.88;;;2.13;;
41799;SDS011;27468;47.460;19.034;2023-04-28T01:30:31;6.90;;;2.97;;
41799;SDS011;27468;47.460;19.034;2023-04-28T01:32:56;4.05;;;2.35;;
41799;SDS011;27468;47.460;19.034;2023-04-28T01:35:22;5.13;;;2.60;;
41799;SDS011;27468;47.460;19.034;2023-04-28T01:37:48;4.32;;;2.10;;
41799;SDS011;27468;47.460;19.034;2023-04-28T01:40:13;5.60;;;2.70;;
41799;SDS011;27468;47.460;19.034;2023-04-28T01:42:39;5.35;;;2.47;;
41799;SDS011;27468;47.460;19.034;2023-04-28T01:45:04;6.18;;;2.83;;
41799;SDS011;27468;47.460;19.034;2023-04-28T01:47:30;4.50;;;2.35;;
41799;SDS011;27468;47.460;19.034;2023-04-28T01:49:56;3.95;;;2.55;;
41799;SDS011;27468;47.460;19.034;2023-04-28T01:52:21;4.43;;;2.58;;
41799;SDS011;27468;47.460;19.034;2023-04-28T01:54:48;5.55;;;2.40;;
41799;SDS011;27468;47.460;19.034;2023-04-28T01:57:14;5.65;;;2.35;;
41799;SDS011;27468;47.460;19.034;2023-04-28T01:59:40;5.35;;;2.60;;
41799;SDS011;27468;47.460;19.034;2023-04-28T02:02:05;5.70;;;2.53;;
41799;SDS011;27468;47.460;19.034;2023-04-28T02:04:31;6.75;;;3.35;;
41799;SDS011;27468;47.460;19.034;2023-04-28T02:06:56;6.63;;;2.60;;
41799;SDS011;27468;47.460;19.034;2023-04-28T02:09:22;4.28;;;2.42;;
41799;SDS011;27468;47.460;19.034;2023-04-28T02:11:48;4.68;;;2.45;;
41799;SDS011;27468;47.460;19.034;2023-04-28T02:14:13;5.78;;;3.00;;
41799;SDS011;27468;47.460;19.034;2023-04-28T02:16:39;5.18;;;2.40;;
41799;SDS011;27468;47.460;19.034;2023-04-28T02:19:04;7.15;;;3.03;;
41799;SDS011;27468;47.460;19.034;2023-04-28T02:21:30;5.95;;;2.60;;
41799;SDS011;27468;47.460;19.034;2023-04-28T02:23:55;6.78;;;2.85;;
41799;SDS011;27468;47.460;19.034;2023-04-28T02:26:21;3.70;;;2.10;;
41799;SDS011;27468;47.460;19.034;2023-04-28T02:28:47;4.53;;;2.75;;
41799;SDS011;27468;47.460;19.034;2023-04-28T02:31:13;6.13;;;2.28;;
41799;SDS011;27468;47.460;19.034;2023-04-28T02:33:38;5.20;;;2.70;;
41799;SDS011;27468;47.460;19.034;2023-04-28T02:36:04;3.55;;;2.13;;
41799;SDS011;27468;47.460;19.034;2023-04-28T02:38:30;4.47;;;2.35;;
41799;SDS011;27468;47.460;19.034;2023-04-28T02:41:02;3.28;;;2.20;;
41799;SDS011;27468;47.460;19.034;2023-04-28T02:43:30;6.00;;;2.42;;
41799;SDS011;27468;47.460;19.034;2023-04-28T02:45:56;4.03;;;2.38;;
41799;SDS011;27468;47.460;19.034;2023-04-28T02:48:22;3.88;;;2.38;;
41799;SDS011;27468;47.460;19.034;2023-04-28T02:50:48;4.57;;;2.50;;
41799;SDS011;27468;47.460;19.034;2023-04-28T02:53:14;4.45;;;2.50;;
41799;SDS011;27468;47.460;19.034;2023-04-28T02:55:40;4.88;;;2.35;;
41799;SDS011;27468;47.460;19.034;2023-04-28T02:58:05;5.72;;;2.85;;
41799;SDS011;27468;47.460;19.034;2023-04-28T03:00:31;4.10;;;2.47;;
41799;SDS011;27468;47.460;19.034;2023-04-28T03:02:56;4.95;;;2.58;;
41799;SDS011;27468;47.460;19.034;2023-04-28T03:05:22;5.40;;;2.28;;
41799;SDS011;27468;47.460;19.034;2023-04-28T03:07:48;3.83;;;2.03;;
41799;SDS011;27468;47.460;19.034;2023-04-28T03:10:13;2.83;;;2.25;;
41799;SDS011;27468;47.460;19.034;2023-04-28T03:12:38;4.15;;;2.10;;
41799;SDS011;27468;47.460;19.034;2023-04-28T03:15:04;4.63;;;2.15;;
41799;SDS011;27468;47.460;19.034;2023-04-28T03:17:32;4.53;;;2.75;;
41799;SDS011;27468;47.460;19.034;2023-04-28T03:19:58;2.47;;;2.10;;
41799;SDS011;27468;47.460;19.034;2023-04-28T03:22:23;4.18;;;2.38;;
41799;SDS011;27468;47.460;19.034;2023-04-28T03:24:49;4.75;;;2.25;;
41799;SDS011;27468;47.460;19.034;2023-04-28T03:27:14;5.10;;;2.20;;
41799;SDS011;27468;47.460;19.034;2023-04-28T03:29:40;5.40;;;2.28;;
41799;SDS011;27468;47.460;19.034;2023-04-28T03:32:05;3.63;;;2.53;;
41799;SDS011;27468;47.460;19.034;2023-04-28T03:34:30;4.60;;;2.42;;
41799;SDS011;27468;47.460;19.034;2023-04-28T03:36:56;4.32;;;2.40;;
41799;SDS011;27468;47.460;19.034;2023-04-28T03:39:21;2.22;;;1.65;;
41799;SDS011;27468;47.460;19.034;2023-04-28T03:41:47;5.88;;;2.20;;
41799;SDS011;27468;47.460;19.034;2023-04-28T03:44:12;3.63;;;2.30;;
41799;SDS011;27468;47.460;19.034;2023-04-28T03:46:37;3.83;;;2.22;;
41799;SDS011;27468;47.460;19.034;2023-04-28T03:49:04;3.65;;;2.10;;
41799;SDS011;27468;47.460;19.034;2023-04-28T03:51:30;4.47;;;2.08;;
41799;SDS011;27468;47.460;19.034;2023-04-28T03:53:57;6.32;;;2.50;;
41799;SDS011;27468;47.460;19.034;2023-04-28T03:56:22;2.85;;;2.10;;
41799;SDS011;27468;47.460;19.034;2023-04-28T03:58:48;4.90;;;2.60;;
41799;SDS011;27468;47.460;19.034;2023-04-28T04:01:13;2.70;;;2.00;;
41799;SDS011;27468;47.460;19.034;2023-04-28T04:03:39;3.45;;;2.40;;
41799;SDS011;27468;47.460;19.034;2023-04-28T04:06:04;3.63;;;2.58;;
41799;SDS011;27468;47.460;19.034;2023-04-28T04:08:30;4.07;;;2.00;;
41799;SDS011;27468;47.460;19.034;2023-04-28T04:10:57;3.60;;;2.08;;
41799;SDS011;27468;47.460;19.034;2023-04-28T04:13:22;3.47;;;2.20;;
41799;SDS011;27468;47.460;19.034;2023-04-28T04:15:48;5.18;;;2.20;;
41799;SDS011;27468;47.460;19.034;2023-04-28T04:18:14;4.32;;;2.40;;
41799;SDS011;27468;47.460;19.034;2023-04-28T04:20:40;4.15;;;2.22;;
41799;SDS011;27468;47.460;19.034;2023-04-28T04:23:05;5.60;;;2.05;;
41799;SDS011;27468;47.460;19.034;2023-04-28T04:25:31;5.30;;;2.08;;
41799;SDS011;27468;47.460;19.034;2023-04-28T04:27:56;5.43;;;2.47;;
41799;SDS011;27468;47.460;19.034;2023-04-28T04:30:23;3.33;;;2.20;;
41799;SDS011;27468;47.460;19.034;2023-04-28T04:32:48;4.10;;;2.25;;
41799;SDS011;27468;47.460;19.034;2023-04-28T04:35:13;3.97;;;2.22;;
41799;SDS011;27468;47.460;19.034;2023-04-28T04:37:39;6.32;;;2.70;;
41799;SDS011;27468;47.460;19.034;2023-04-28T04:40:05;4.97;;;2.35;;
41799;SDS011;27468;47.460;19.034;2023-04-28T04:42:31;3.15;;;2.20;;
41799;SDS011;27468;47.460;19.034;2023-04-28T04:44:57;5.32;;;2.55;;
41799;SDS011;27468;47.460;19.034;2023-04-28T04:47:22;4.15;;;2.80;;
41799;SDS011;27468;47.460;19.034;2023-04-28T04:49:48;5.07;;;2.95;;
41799;SDS011;27468;47.460;19.034;2023-04-28T04:52:14;3.83;;;2.83;;
41799;SDS011;27468;47.460;19.034;2023-04-28T04:54:40;3.42;;;2.08;;
41799;SDS011;27468;47.460;19.034;2023-04-28T04:57:05;4.40;;;2.92;;
41799;SDS011;27468;47.460;19.034;2023-04-28T04:59:31;4.57;;;2.83;;
41799;SDS011;27468;47.460;19.034;2023-04-28T05:01:57;5.88;;;3.10;;
41799;SDS011;27468;47.460;19.034;2023-04-28T05:04:22;3.80;;;2.90;;
41799;SDS011;27468;47.460;19.034;2023-04-28T05:06:47;4.50;;;2.60;;
41799;SDS011;27468;47.460;19.034;2023-04-28T05:09:13;4.75;;;3.58;;
41799;SDS011;27468;47.460;19.034;2023-04-28T05:11:38;3.88;;;2.72;;
41799;SDS011;27468;47.460;19.034;2023-04-28T05:14:04;3.90;;;2.72;;
41799;SDS011;27468;47.460;19.034;2023-04-28T05:16:30;4.68;;;2.85;;
41799;SDS011;27468;47.460;19.034;2023-04-28T05:18:55;4.55;;;2.97;;
41799;SDS011;27468;47.460;19.034;2023-04-28T05:21:20;5.78;;;2.95;;
41799;SDS011;27468;47.460;19.034;2023-04-28T05:23:46;6.70;;;2.88;;
41799;SDS011;27468;47.460;19.034;2023-04-28T05:26:11;6.13;;;3.30;;
41799;SDS011;27468;47.460;19.034;2023-04-28T05:28:38;5.70;;;3.20;;
41799;SDS011;27468;47.460;19.034;2023-04-28T05:31:05;4.07;;;3.00;;
41799;SDS011;27468;47.460;19.034;2023-04-28T05:33:31;5.70;;;3.47;;
41799;SDS011;27468;47.460;19.034;2023-04-28T05:35:56;8.00;;;3.33;;
41799;SDS011;27468;47.460;19.034;2023-04-28T05:38:22;4.68;;;3.08;;
41799;SDS011;27468;47.460;19.034;2023-04-28T05:40:47;8.43;;;3.83;;
41799;SDS011;27468;47.460;19.034;2023-04-28T05:43:13;5.40;;;3.35;;
41799;SDS011;27468;47.460;19.034;2023-04-28T05:45:38;5.53;;;2.88;;
41799;SDS011;27468;47.460;19.034;2023-04-28T05:48:04;5.53;;;3.33;;
41799;SDS011;27468;47.460;19.034;2023-04-28T05:50:29;5.20;;;3.92;;
41799;SDS011;27468;47.460;19.034;2023-04-28T05:52:55;6.75;;;3.58;;
41799;SDS011;27468;47.460;19.034;2023-04-28T05:55:21;6.55;;;3.70;;
41799;SDS011;27468;47.460;19.034;2023-04-28T05:57:46;7.20;;;3.55;;
41799;SDS011;27468;47.460;19.034;2023-04-28T06:00:13;8.25;;;3.65;;
41799;SDS011;27468;47.460;19.034;2023-04-28T06:02:38;6.47;;;4.05;;
41799;SDS011;27468;47.460;19.034;2023-04-28T06:05:04;5.22;;;3.45;;
41799;SDS011;27468;47.460;19.034;2023-04-28T06:07:31;4.90;;;3.35;;
41799;SDS011;27468;47.460;19.034;2023-04-28T06:09:56;5.60;;;3.75;;
41799;SDS011;27468;47.460;19.034;2023-04-28T06:12:22;7.10;;;3.95;;
41799;SDS011;27468;47.460;19.034;2023-04-28T06:14:47;4.40;;;2.97;;
41799;SDS011;27468;47.460;19.034;2023-04-28T06:17:13;6.40;;;3.83;;
41799;SDS011;27468;47.460;19.034;2023-04-28T06:19:38;5.38;;;3.50;;
41799;SDS011;27468;47.460;19.034;2023-04-28T06:22:03;5.57;;;3.65;;
41799;SDS011;27468;47.460;19.034;2023-04-28T06:24:29;5.95;;;3.42;;
41799;SDS011;27468;47.460;19.034;2023-04-28T06:26:54;7.38;;;4.22;;
41799;SDS011;27468;47.460;19.034;2023-04-28T06:29:20;6.38;;;3.55;;
41799;SDS011;27468;47.460;19.034;2023-04-28T06:31:47;6.18;;;4.03;;
41799;SDS011;27468;47.460;19.034;2023-04-28T06:34:13;6.40;;;3.55;;
41799;SDS011;27468;47.460;19.034;2023-04-28T06:36:39;5.10;;;3.30;;
41799;SDS011;27468;47.460;19.034;2023-04-28T06:39:04;5.55;;;4.13;;
41799;SDS011;27468;47.460;19.034;2023-04-28T06:41:30;6.05;;;4.35;;
41799;SDS011;27468;47.460;19.034;2023-04-28T06:43:55;6.13;;;3.97;;
41799;SDS011;27468;47.460;19.034;2023-04-28T06:46:21;6.22;;;3.58;;
41799;SDS011;27468;47.460;19.034;2023-04-28T06:48:46;9.30;;;4.65;;
41799;SDS011;27468;47.460;19.034;2023-04-28T06:51:13;7.43;;;3.78;;
41799;SDS011;27468;47.460;19.034;2023-04-28T06:53:38;7.78;;;3.97;;
41799;SDS011;27468;47.460;19.034;2023-04-28T06:56:04;4.70;;;3.47;;
41799;SDS011;27468;47.460;19.034;2023-04-28T06:58:30;5.70;;;4.07;;
41799;SDS011;27468;47.460;19.034;2023-04-28T07:00:55;9.10;;;4.07;;
41799;SDS011;27468;47.460;19.034;2023-04-28T07:03:20;5.28;;;3.38;;
41799;SDS011;27468;47.460;19.034;2023-04-28T07:05:46;6.00;;;4.60;;
41799;SDS011;27468;47.460;19.034;2023-04-28T07:08:11;5.80;;;3.80;;
41799;SDS011;27468;47.460;19.034;2023-04-28T07:10:37;7.43;;;4.32;;
41799;SDS011;27468;47.460;19.034;2023-04-28T07:13:02;6.70;;;4.90;;
41799;SDS011;27468;47.460;19.034;2023-04-28T07:15:27;7.13;;;4.45;;
41799;SDS011;27468;47.460;19.034;2023-04-28T07:17:53;6.93;;;4.25;;
41799;SDS011;27468;47.460;19.034;2023-04-28T07:20:19;7.72;;;4.10;;
41799;SDS011;27468;47.460;19.034;2023-04-28T07:22:44;7.93;;;4.13;;
41799;SDS011;27468;47.460;19.034;2023-04-28T07:25:10;7.00;;;3.75;;
41799;SDS011;27468;47.460;19.034;2023-04-28T07:27:35;5.82;;;4.15;;
41799;SDS011;27468;47.460;19.034;2023-04-28T07:30:01;5.93;;;4.00;;
41799;SDS011;27468;47.460;19.034;2023-04-28T07:32:26;6.32;;;3.90;;
41799;SDS011;27468;47.460;19.034;2023-04-28T07:34:52;4.95;;;3.42;;
41799;SDS011;27468;47.460;19.034;2023-04-28T07:37:17;8.38;;;4.80;;
41799;SDS011;27468;47.460;19.034;2023-04-28T07:39:43;6.97;;;4.18;;
41799;SDS011;27468;47.460;19.034;2023-04-28T07:42:08;5.72;;;4.15;;
41799;SDS011;27468;47.460;19.034;2023-04-28T07:44:34;8.32;;;4.32;;
41799;SDS011;27468;47.460;19.034;2023-04-28T07:47:00;7.35;;;4.20;;
41799;SDS011;27468;47.460;19.034;2023-04-28T07:49:29;6.38;;;4.25;;
41799;SDS011;27468;47.460;19.034;2023-04-28T07:51:55;6.25;;;3.70;;
41799;SDS011;27468;47.460;19.034;2023-04-28T07:54:21;4.78;;;3.40;;
41799;SDS011;27468;47.460;19.034;2023-04-28T07:56:46;7.53;;;3.95;;
41799;SDS011;27468;47.460;19.034;2023-04-28T07:59:12;9.05;;;3.72;;
41799;SDS011;27468;47.460;19.034;2023-04-28T08:01:38;5.03;;;3.20;;
41799;SDS011;27468;47.460;19.034;2023-04-28T08:04:04;6.82;;;3.38;;
41799;SDS011;27468;47.460;19.034;2023-04-28T08:06:29;5.63;;;3.20;;
41799;SDS011;27468;47.460;19.034;2023-04-28T08:08:55;5.10;;;3.53;;
41799;SDS011;27468;47.460;19.034;2023-04-28T08:11:20;5.82;;;3.38;;
41799;SDS011;27468;47.460;19.034;2023-04-28T08:13:46;4.60;;;3.28;;
41799;SDS011;27468;47.460;19.034;2023-04-28T08:16:12;6.03;;;4.07;;
41799;SDS011;27468;47.460;19.034;2023-04-28T08:18:38;7.05;;;3.83;;
41799;SDS011;27468;47.460;19.034;2023-04-28T08:21:04;6.20;;;3.72;;
41799;SDS011;27468;47.460;19.034;2023-04-28T08:23:30;4.15;;;3.00;;
41799;SDS011;27468;47.460;19.034;2023-04-28T08:25:56;4.10;;;2.90;;
41799;SDS011;27468;47.460;19.034;2023-04-28T08:28:21;7.43;;;4.25;;
41799;SDS011;27468;47.460;19.034;2023-04-28T08:30:47;4.20;;;2.95;;
41799;SDS011;27468;47.460;19.034;2023-04-28T08:33:12;4.35;;;2.65;;
41799;SDS011;27468;47.460;19.034;2023-04-28T08:35:38;4.07;;;3.00;;
41799;SDS011;27468;47.460;19.034;2023-04-28T08:38:05;4.05;;;2.50;;
41799;SDS011;27468;47.460;19.034;2023-04-28T08:40:31;4.15;;;2.58;;
41799;SDS011;27468;47.460;19.034;2023-04-28T08:42:57;2.88;;;1.98;;
41799;SDS011;27468;47.460;19.034;2023-04-28T08:45:23;3.00;;;2.17;;
41799;SDS011;27468;47.460;19.034;2023-04-28T08:47:49;4.22;;;2.28;;
41799;SDS011;27468;47.460;19.034;2023-04-28T08:50:16;3.28;;;2.38;;
41799;SDS011;27468;47.460;19.034;2023-04-28T08:55:16;6.70;;;2.72;;
41799;SDS011;27468;47.460;19.034;2023-04-28T08:57:47;4.10;;;2.33;;
41799;SDS011;27468;47.460;19.034;2023-04-28T09:00:15;3.13;;;2.13;;
41799;SDS011;27468;47.460;19.034;2023-04-28T09:02:41;4.47;;;2.90;;
41799;SDS011;27468;47.460;19.034;2023-04-28T09:05:10;2.90;;;2.45;;
41799;SDS011;27468;47.460;19.034;2023-04-28T09:07:36;4.20;;;2.03;;
41799;SDS011;27468;47.460;19.034;2023-04-28T09:10:21;3.83;;;2.05;;
41799;SDS011;27468;47.460;19.034;2023-04-28T09:12:52;3.67;;;2.00;;
41799;SDS011;27468;47.460;19.034;2023-04-28T09:17:51;2.63;;;1.90;;
41799;SDS011;27468;47.460;19.034;2023-04-28T09:20:20;5.60;;;2.90;;
41799;SDS011;27468;47.460;19.034;2023-04-28T09:22:47;3.38;;;2.70;;
41799;SDS011;27468;47.460;19.034;2023-04-28T09:25:13;3.13;;;2.28;;
41799;SDS011;27468;47.460;19.034;2023-04-28T09:27:39;3.22;;;1.98;;
41799;SDS011;27468;47.460;19.034;2023-04-28T09:30:04;3.15;;;2.15;;
41799;SDS011;27468;47.460;19.034;2023-04-28T09:32:30;3.00;;;2.20;;
41799;SDS011;27468;47.460;19.034;2023-04-28T09:34:56;4.57;;;2.15;;
41799;SDS011;27468;47.460;19.034;2023-04-28T09:37:22;3.05;;;2.10;;
41799;SDS011;27468;47.460;19.034;2023-04-28T09:39:50;2.45;;;1.88;;
41799;SDS011;27468;47.460;19.034;2023-04-28T09:47:28;2.65;;;1.83;;
41799;SDS011;27468;47.460;19.034;2023-04-28T09:49:57;2.55;;;1.80;;
41799;SDS011;27468;47.460;19.034;2023-04-28T09:52:24;2.88;;;1.90;;
41799;SDS011;27468;47.460;19.034;2023-04-28T09:54:50;3.17;;;2.00;;
41799;SDS011;27468;47.460;19.034;2023-04-28T09:57:17;3.20;;;1.92;;
41799;SDS011;27468;47.460;19.034;2023-04-28T09:59:50;3.83;;;2.00;;
41799;SDS011;27468;47.460;19.034;2023-04-28T10:02:17;4.53;;;2.40;;
41799;SDS011;27468;47.460;19.034;2023-04-28T10:04:44;3.25;;;1.95;;
41799;SDS011;27468;47.460;19.034;2023-04-28T10:07:12;3.22;;;2.20;;
41799;SDS011;27468;47.460;19.034;2023-04-28T10:09:38;4.25;;;1.92;;
41799;SDS011;27468;47.460;19.034;2023-04-28T10:12:08;4.45;;;2.10;;
41799;SDS011;27468;47.460;19.034;2023-04-28T10:14:34;2.72;;;1.95;;
41799;SDS011;27468;47.460;19.034;2023-04-28T10:17:01;2.40;;;1.85;;
41799;SDS011;27468;47.460;19.034;2023-04-28T10:19:28;2.88;;;1.95;;
41799;SDS011;27468;47.460;19.034;2023-04-28T10:22:01;3.30;;;1.88;;
41799;SDS011;27468;47.460;19.034;2023-04-28T10:24:30;3.58;;;1.95;;
41799;SDS011;27468;47.460;19.034;2023-04-28T10:27:04;2.25;;;1.70;;
41799;SDS011;27468;47.460;19.034;2023-04-28T10:29:32;2.67;;;1.70;;
41799;SDS011;27468;47.460;19.034;2023-04-28T10:32:17;3.35;;;1.55;;
41799;SDS011;27468;47.460;19.034;2023-04-28T10:34:45;5.03;;;2.03;;
41799;SDS011;27468;47.460;19.034;2023-04-28T10:37:11;3.22;;;1.83;;
41799;SDS011;27468;47.460;19.034;2023-04-28T10:39:39;2.05;;;1.70;;
41799;SDS011;27468;47.460;19.034;2023-04-28T10:42:07;2.00;;;1.42;;
41799;SDS011;27468;47.460;19.034;2023-04-28T10:45:23;3.00;;;1.50;;
41799;SDS011;27468;47.460;19.034;2023-04-28T10:56:09;2.83;;;1.25;;
41799;SDS011;27468;47.460;19.034;2023-04-28T10:58:36;2.60;;;1.65;;
41799;SDS011;27468;47.460;19.034;2023-04-28T11:09:45;1.92;;;1.50;;
41799;SDS011;27468;47.460;19.034;2023-04-28T11:14:38;2.05;;;1.58;;
41799;SDS011;27468;47.460;19.034;2023-04-28T11:17:07;1.77;;;1.67;;
41799;SDS011;27468;47.460;19.034;2023-04-28T11:19:39;2.58;;;1.33;;
41799;SDS011;27468;47.460;19.034;2023-04-28T11:22:13;4.53;;;1.98;;
41799;SDS011;27468;47.460;19.034;2023-04-28T11:24:39;2.63;;;1.70;;
41799;SDS011;27468;47.460;19.034;2023-04-28T11:27:04;2.35;;;1.40;;
41799;SDS011;27468;47.460;19.034;2023-04-28T11:29:31;2.42;;;1.50;;
41799;SDS011;27468;47.460;19.034;2023-04-28T11:31:57;2.40;;;1.67;;
41799;SDS011;27468;47.460;19.034;2023-04-28T11:34:23;3.13;;;1.85;;
41799;SDS011;27468;47.460;19.034;2023-04-28T11:36:49;3.35;;;1.40;;
41799;SDS011;27468;47.460;19.034;2023-04-28T11:39:16;3.80;;;1.73;;
41799;SDS011;27468;47.460;19.034;2023-04-28T11:41:52;2.42;;;1.70;;
41799;SDS011;27468;47.460;19.034;2023-04-28T11:44:19;1.88;;;1.30;;
41799;SDS011;27468;47.460;19.034;2023-04-28T11:51:53;1.52;;;1.40;;
41799;SDS011;27468;47.460;19.034;2023-04-28T11:54:20;3.25;;;1.60;;
41799;SDS011;27468;47.460;19.034;2023-04-28T11:56:49;2.83;;;1.60;;
41799;SDS011;27468;47.460;19.034;2023-04-28T11:59:16;1.83;;;1.60;;
41799;SDS011;27468;47.460;19.034;2023-04-28T12:04:14;2.03;;;1.42;;
41799;SDS011;27468;47.460;19.034;2023-04-28T12:07:24;2.42;;;1.60;;
41799;SDS011;27468;47.460;19.034;2023-04-28T12:12:35;2.65;;;1.90;;
41799;SDS011;27468;47.460;19.034;2023-04-28T12:15:04;2.33;;;1.77;;
41799;SDS011;27468;47.460;19.034;2023-04-28T12:20:04;2.72;;;1.45;;
41799;SDS011;27468;47.460;19.034;2023-04-28T12:22:42;1.88;;;1.45;;
41799;SDS011;27468;47.460;19.034;2023-04-28T12:25:09;2.33;;;1.77;;
41799;SDS011;27468;47.460;19.034;2023-04-28T12:27:37;2.53;;;1.60;;
41799;SDS011;27468;47.460;19.034;2023-04-28T12:30:25;3.53;;;1.77;;
41799;SDS011;27468;47.460;19.034;2023-04-28T12:32:54;2.67;;;1.60;;
41799;SDS011;27468;47.460;19.034;2023-04-28T12:35:20;2.10;;;1.40;;
41799;SDS011;27468;47.460;19.034;2023-04-28T12:37:47;5.07;;;1.60;;
41799;SDS011;27468;47.460;19.034;2023-04-28T12:40:12;2.22;;;1.63;;
41799;SDS011;27468;47.460;19.034;2023-04-28T12:42:38;2.60;;;1.42;;
41799;SDS011;27468;47.460;19.034;2023-04-28T12:45:04;2.97;;;1.40;;
41799;SDS011;27468;47.460;19.034;2023-04-28T12:47:30;2.30;;;1.30;;
41799;SDS011;27468;47.460;19.034;2023-04-28T12:49:56;2.15;;;1.38;;
41799;SDS011;27468;47.460;19.034;2023-04-28T12:52:21;1.80;;;1.60;;
41799;SDS011;27468;47.460;19.034;2023-04-28T12:54:47;3.95;;;1.50;;
41799;SDS011;27468;47.460;19.034;2023-04-28T12:57:13;3.60;;;1.55;;
41799;SDS011;27468;47.460;19.034;2023-04-28T12:59:39;2.88;;;1.75;;
41799;SDS011;27468;47.460;19.034;2023-04-28T13:02:05;3.45;;;1.70;;
41799;SDS011;27468;47.460;19.034;2023-04-28T13:04:31;2.60;;;1.50;;
41799;SDS011;27468;47.460;19.034;2023-04-28T13:06:57;2.90;;;1.40;;
41799;SDS011;27468;47.460;19.034;2023-04-28T13:09:23;2.97;;;1.50;;
41799;SDS011;27468;47.460;19.034;2023-04-28T13:11:49;1.85;;;1.48;;
41799;SDS011;27468;47.460;19.034;2023-04-28T13:14:14;2.75;;;1.40;;
41799;SDS011;27468;47.460;19.034;2023-04-28T13:16:39;3.22;;;1.42;;
41799;SDS011;27468;47.460;19.034;2023-04-28T13:19:05;2.95;;;1.70;;
41799;SDS011;27468;47.460;19.034;2023-04-28T13:21:34;2.30;;;1.50;;
41799;SDS011;27468;47.460;19.034;2023-04-28T13:24:01;3.33;;;1.60;;
41799;SDS011;27468;47.460;19.034;2023-04-28T13:26:28;2.25;;;1.55;;
41799;SDS011;27468;47.460;19.034;2023-04-28T13:28:54;2.65;;;1.70;;
41799;SDS011;27468;47.460;19.034;2023-04-28T13:31:20;1.77;;;1.65;;
41799;SDS011;27468;47.460;19.034;2023-04-28T13:33:45;2.95;;;1.58;;
41799;SDS011;27468;47.460;19.034;2023-04-28T13:36:11;2.85;;;1.50;;
41799;SDS011;27468;47.460;19.034;2023-04-28T13:38:36;1.55;;;1.23;;
41799;SDS011;27468;47.460;19.034;2023-04-28T13:41:02;2.55;;;1.48;;
41799;SDS011;27468;47.460;19.034;2023-04-28T13:43:28;2.53;;;1.20;;
41799;SDS011;27468;47.460;19.034;2023-04-28T13:45:55;2.60;;;1.35;;
41799;SDS011;27468;47.460;19.034;2023-04-28T13:48:20;2.30;;;1.20;;
41799;SDS011;27468;47.460;19.034;2023-04-28T13:50:45;2.30;;;1.50;;
41799;SDS011;27468;47.460;19.034;2023-04-28T13:53:11;2.15;;;1.40;;
41799;SDS011;27468;47.460;19.034;2023-04-28T13:55:36;2.58;;;1.50;;
41799;SDS011;27468;47.460;19.034;2023-04-28T13:58:02;1.20;;;1.10;;
41799;SDS011;27468;47.460;19.034;2023-04-28T14:00:31;1.60;;;1.30;;
41799;SDS011;27468;47.460;19.034;2023-04-28T14:02:57;3.45;;;1.73;;
41799;SDS011;27468;47.460;19.034;2023-04-28T14:05:23;2.65;;;1.50;;
41799;SDS011;27468;47.460;19.034;2023-04-28T14:07:49;1.75;;;1.50;;
41799;SDS011;27468;47.460;19.034;2023-04-28T14:10:15;2.30;;;1.35;;
41799;SDS011;27468;47.460;19.034;2023-04-28T14:12:41;2.05;;;1.50;;
41799;SDS011;27468;47.460;19.034;2023-04-28T14:15:07;2.20;;;1.40;;
41799;SDS011;27468;47.460;19.034;2023-04-28T14:17:33;1.83;;;1.65;;
41799;SDS011;27468;47.460;19.034;2023-04-28T14:20:01;2.45;;;1.25;;
41799;SDS011;27468;47.460;19.034;2023-04-28T14:22:28;2.30;;;1.33;;
41799;SDS011;27468;47.460;19.034;2023-04-28T14:24:54;1.73;;;1.42;;
41799;SDS011;27468;47.460;19.034;2023-04-28T14:27:20;2.20;;;1.50;;
41799;SDS011;27468;47.460;19.034;2023-04-28T14:29:46;3.00;;;1.30;;
41799;SDS011;27468;47.460;19.034;2023-04-28T14:32:15;1.55;;;1.30;;
41799;SDS011;27468;47.460;19.034;2023-04-28T14:34:44;1.83;;;1.65;;
41799;SDS011;27468;47.460;19.034;2023-04-28T14:37:10;1.48;;;1.35;;
41799;SDS011;27468;47.460;19.034;2023-04-28T14:39:36;1.98;;;1.63;;
41799;SDS011;27468;47.460;19.034;2023-04-28T14:42:02;1.67;;;1.30;;
41799;SDS011;27468;47.460;19.034;2023-04-28T14:44:28;2.03;;;1.60;;
41799;SDS011;27468;47.460;19.034;2023-04-28T14:46:53;3.03;;;2.00;;
41799;SDS011;27468;47.460;19.034;2023-04-28T14:49:20;2.58;;;1.50;;
41799;SDS011;27468;47.460;19.034;2023-04-28T14:51:46;2.17;;;1.48;;
41799;SDS011;27468;47.460;19.034;2023-04-28T14:54:13;1.42;;;1.33;;
41799;SDS011;27468;47.460;19.034;2023-04-28T14:56:38;2.58;;;1.42;;
41799;SDS011;27468;47.460;19.034;2023-04-28T14:59:04;2.35;;;1.23;;
41799;SDS011;27468;47.460;19.034;2023-04-28T15:01:29;2.38;;;1.33;;
41799;SDS011;27468;47.460;19.034;2023-04-28T15:03:55;2.40;;;1.60;;
41799;SDS011;27468;47.460;19.034;2023-04-28T15:06:20;3.00;;;1.50;;
41799;SDS011;27468;47.460;19.034;2023-04-28T15:08:46;1.30;;;1.20;;
41799;SDS011;27468;47.460;19.034;2023-04-28T15:11:11;3.00;;;1.40;;